sensor_id;sensor_type;location;lat;lon;timestamp;temperature;humidity
10980;DHT22;5543;51.734;8.744;2023-03-25T00:01:18;8.80;99.90
10980;DHT22;5543;51.734;8.744;2023-03-25T00:03:51;8.80;99.90
10980;DHT22;5543;51.734;8.744;2023-03-25T00:06:20;8.80;99.90
10980;DHT22;5543;51.734;8.744;2023-03-25T00:08:48;8.90;99.90
10980;DHT22;5543;51.734;8.744;2023-03-25T00:11:17;9.00;99.90
10980;DHT22;5543;51.734;8.744;2023-03-25T00:13:45;9.10;99.90
10980;DHT22;5543;51.734;8.744;2023-03-25T00:16:15;9.10;99.90
10980;DHT22;5543;51.734;8.744;2023-03-25T00:18:46;9.20;99.90
10980;DHT22;5543;51.734;8.744;2023-03-25T00:21:15;9.30;99.90
10980;DHT22;5543;51.734;8.744;2023-03-25T00:23:44;9.30;99.90
10980;DHT22;5543;51.734;8.744;2023-03-25T00:26:13;9.30;99.90
10980;DHT22;5543;51.734;8.744;2023-03-25T00:28:41;9.40;99.90
10980;DHT22;5543;51.734;8.744;2023-03-25T00:31:12;9.50;99.90
10980;DHT22;5543;51.734;8.744;2023-03-25T00:33:41;9.50;99.90
10980;DHT22;5543;51.734;8.744;2023-03-25T00:36:11;9.50;99.90
10980;DHT22;5543;51.734;8.744;2023-03-25T00:38:40;9.60;99.90
10980;DHT22;5543;51.734;8.744;2023-03-25T00:41:11;9.60;99.90
10980;DHT22;5543;51.734;8.744;2023-03-25T00:43:39;9.60;99.90
10980;DHT22;5543;51.734;8.744;2023-03-25T00:46:07;9.60;99.90
10980;DHT22;5543;51.734;8.744;2023-03-25T00:48:35;9.60;99.90
10980;DHT22;5543;51.734;8.744;2023-03-25T00:51:04;9.70;99.90
10980;DHT22;5543;51.734;8.744;2023-03-25T00:53:37;9.60;99.90
10980;DHT22;5543;51.734;8.744;2023-03-25T00:56:06;9.60;99.90
10980;DHT22;5543;51.734;8.744;2023-03-25T00:58:34;9.50;99.90
10980;DHT22;5543;51.734;8.744;2023-03-25T01:01:07;9.60;99.90
10980;DHT22;5543;51.734;8.744;2023-03-25T01:03:39;9.50;99.90
10980;DHT22;5543;51.734;8.744;2023-03-25T01:06:10;9.50;99.90
10980;DHT22;5543;51.734;8.744;2023-03-25T01:08:41;9.50;99.90
10980;DHT22;5543;51.734;8.744;2023-03-25T01:11:18;9.40;99.90
10980;DHT22;5543;51.734;8.744;2023-03-25T01:13:47;9.30;99.90
10980;DHT22;5543;51.734;8.744;2023-03-25T01:16:15;9.20;99.90
10980;DHT22;5543;51.734;8.744;2023-03-25T01:18:43;9.10;99.90
10980;DHT22;5543;51.734;8.744;2023-03-25T01:21:11;9.10;99.90
10980;DHT22;5543;51.734;8.744;2023-03-25T01:23:41;9.10;99.90
10980;DHT22;5543;51.734;8.744;2023-03-25T01:26:09;9.00;99.90
10980;DHT22;5543;51.734;8.744;2023-03-25T01:28:39;9.00;99.90
10980;DHT22;5543;51.734;8.744;2023-03-25T01:31:09;9.00;99.90
10980;DHT22;5543;51.734;8.744;2023-03-25T01:33:37;9.00;99.90
10980;DHT22;5543;51.734;8.744;2023-03-25T01:36:06;9.00;99.90
10980;DHT22;5543;51.734;8.744;2023-03-25T01:38:35;9.00;99.90
10980;DHT22;5543;51.734;8.744;2023-03-25T01:41:05;9.10;99.90
10980;DHT22;5543;51.734;8.744;2023-03-25T01:43:34;9.00;99.90
10980;DHT22;5543;51.734;8.744;2023-03-25T01:46:03;9.00;99.90
10980;DHT22;5543;51.734;8.744;2023-03-25T01:48:34;9.00;99.90
10980;DHT22;5543;51.734;8.744;2023-03-25T01:51:08;9.20;99.90
10980;DHT22;5543;51.734;8.744;2023-03-25T01:53:39;9.10;99.90
10980;DHT22;5543;51.734;8.744;2023-03-25T01:56:12;8.80;99.90
10980;DHT22;5543;51.734;8.744;2023-03-25T01:58:43;8.90;99.90
10980;DHT22;5543;51.734;8.744;2023-03-25T02:01:12;8.90;99.90
10980;DHT22;5543;51.734;8.744;2023-03-25T02:03:41;9.00;99.90
10980;DHT22;5543;51.734;8.744;2023-03-25T02:06:14;8.80;99.90
10980;DHT22;5543;51.734;8.744;2023-03-25T02:08:44;8.90;99.90
10980;DHT22;5543;51.734;8.744;2023-03-25T02:11:14;8.90;99.90
10980;DHT22;5543;51.734;8.744;2023-03-25T02:13:42;9.00;99.90
10980;DHT22;5543;51.734;8.744;2023-03-25T02:16:21;9.10;99.90
10980;DHT22;5543;51.734;8.744;2023-03-25T02:19:03;8.90;99.90
10980;DHT22;5543;51.734;8.744;2023-03-25T02:27:39;8.90;99.90
10980;DHT22;5543;51.734;8.744;2023-03-25T02:30:34;8.90;99.90
10980;DHT22;5543;51.734;8.744;2023-03-25T02:33:24;8.90;99.90
10980;DHT22;5543;51.734;8.744;2023-03-25T02:39:05;8.90;99.90
10980;DHT22;5543;51.734;8.744;2023-03-25T02:41:40;8.90;99.90
10980;DHT22;5543;51.734;8.744;2023-03-25T02:44:13;8.90;99.90
10980;DHT22;5543;51.734;8.744;2023-03-25T02:46:46;9.00;99.90
10980;DHT22;5543;51.734;8.744;2023-03-25T02:49:20;8.90;99.90
10980;DHT22;5543;51.734;8.744;2023-03-25T02:51:54;8.90;99.90
10980;DHT22;5543;51.734;8.744;2023-03-25T02:54:27;8.80;99.90
10980;DHT22;5543;51.734;8.744;2023-03-25T02:56:59;8.90;99.90
10980;DHT22;5543;51.734;8.744;2023-03-25T02:59:29;8.90;99.90
10980;DHT22;5543;51.734;8.744;2023-03-25T03:02:00;8.90;99.90
10980;DHT22;5543;51.734;8.744;2023-03-25T03:04:29;8.90;99.90
10980;DHT22;5543;51.734;8.744;2023-03-25T03:06:57;8.80;99.90
10980;DHT22;5543;51.734;8.744;2023-03-25T03:09:38;8.80;99.90
10980;DHT22;5543;51.734;8.744;2023-03-25T03:12:19;9.00;99.90
10980;DHT22;5543;51.734;8.744;2023-03-25T03:15:06;8.80;99.90
10980;DHT22;5543;51.734;8.744;2023-03-25T03:17:43;8.80;99.90
10980;DHT22;5543;51.734;8.744;2023-03-25T03:20:21;8.80;99.90
10980;DHT22;5543;51.734;8.744;2023-03-25T03:22:57;8.70;99.90
10980;DHT22;5543;51.734;8.744;2023-03-25T03:25:31;8.80;99.90
10980;DHT22;5543;51.734;8.744;2023-03-25T03:28:05;9.00;99.90
10980;DHT22;5543;51.734;8.744;2023-03-25T03:30:43;9.00;99.90
10980;DHT22;5543;51.734;8.744;2023-03-25T03:33:16;8.80;99.90
10980;DHT22;5543;51.734;8.744;2023-03-25T03:35:51;8.80;99.90
10980;DHT22;5543;51.734;8.744;2023-03-25T03:38:25;9.00;99.90
10980;DHT22;5543;51.734;8.744;2023-03-25T03:40:58;8.90;99.90
10980;DHT22;5543;51.734;8.744;2023-03-25T03:43:30;8.90;99.90
10980;DHT22;5543;51.734;8.744;2023-03-25T03:46:03;8.90;99.90
10980;DHT22;5543;51.734;8.744;2023-03-25T03:48:35;8.90;99.90
10980;DHT22;5543;51.734;8.744;2023-03-25T03:51:08;9.00;99.90
10980;DHT22;5543;51.734;8.744;2023-03-25T03:53:40;9.00;99.90
10980;DHT22;5543;51.734;8.744;2023-03-25T03:56:12;9.00;99.90
10980;DHT22;5543;51.734;8.744;2023-03-25T03:58:42;9.00;99.90
10980;DHT22;5543;51.734;8.744;2023-03-25T04:01:12;9.00;99.90
10980;DHT22;5543;51.734;8.744;2023-03-25T04:03:45;8.90;99.90
10980;DHT22;5543;51.734;8.744;2023-03-25T04:06:18;8.90;99.90
10980;DHT22;5543;51.734;8.744;2023-03-25T04:08:53;8.90;99.90
10980;DHT22;5543;51.734;8.744;2023-03-25T04:11:28;9.30;99.90
10980;DHT22;5543;51.734;8.744;2023-03-25T04:14:01;8.90;99.90
10980;DHT22;5543;51.734;8.744;2023-03-25T04:16:29;8.80;99.90
10980;DHT22;5543;51.734;8.744;2023-03-25T04:19:02;8.80;99.90
10980;DHT22;5543;51.734;8.744;2023-03-25T04:21:31;8.90;99.90
10980;DHT22;5543;51.734;8.744;2023-03-25T04:23:59;8.90;99.90
10980;DHT22;5543;51.734;8.744;2023-03-25T04:26:28;8.90;99.90
10980;DHT22;5543;51.734;8.744;2023-03-25T04:29:00;8.90;99.90
10980;DHT22;5543;51.734;8.744;2023-03-25T04:31:29;8.90;99.90
10980;DHT22;5543;51.734;8.744;2023-03-25T04:33:58;8.80;99.90
10980;DHT22;5543;51.734;8.744;2023-03-25T04:36:28;8.90;99.90
10980;DHT22;5543;51.734;8.744;2023-03-25T04:38:59;8.80;99.90
10980;DHT22;5543;51.734;8.744;2023-03-25T04:41:28;8.90;99.90
10980;DHT22;5543;51.734;8.744;2023-03-25T04:43:57;8.80;99.90
10980;DHT22;5543;51.734;8.744;2023-03-25T04:46:26;8.60;99.90
10980;DHT22;5543;51.734;8.744;2023-03-25T04:48:54;8.70;99.90
10980;DHT22;5543;51.734;8.744;2023-03-25T04:51:22;8.70;99.90
10980;DHT22;5543;51.734;8.744;2023-03-25T04:53:50;8.70;99.90
10980;DHT22;5543;51.734;8.744;2023-03-25T04:56:19;8.70;99.90
10980;DHT22;5543;51.734;8.744;2023-03-25T04:58:50;8.70;99.90
10980;DHT22;5543;51.734;8.744;2023-03-25T05:01:22;8.80;99.90
10980;DHT22;5543;51.734;8.744;2023-03-25T05:03:57;8.70;99.90
10980;DHT22;5543;51.734;8.744;2023-03-25T05:06:31;8.70;99.90
10980;DHT22;5543;51.734;8.744;2023-03-25T05:09:01;8.90;99.90
10980;DHT22;5543;51.734;8.744;2023-03-25T05:11:31;8.70;99.90
10980;DHT22;5543;51.734;8.744;2023-03-25T05:14:00;8.70;99.90
10980;DHT22;5543;51.734;8.744;2023-03-25T05:16:28;8.70;99.90
10980;DHT22;5543;51.734;8.744;2023-03-25T05:18:56;8.70;99.90
10980;DHT22;5543;51.734;8.744;2023-03-25T05:21:25;8.70;99.90
10980;DHT22;5543;51.734;8.744;2023-03-25T05:23:53;8.60;99.90
10980;DHT22;5543;51.734;8.744;2023-03-25T05:26:23;8.80;99.90
10980;DHT22;5543;51.734;8.744;2023-03-25T05:28:55;8.70;99.90
10980;DHT22;5543;51.734;8.744;2023-03-25T05:31:29;8.60;99.90
10980;DHT22;5543;51.734;8.744;2023-03-25T05:33:57;8.60;99.90
10980;DHT22;5543;51.734;8.744;2023-03-25T05:36:25;8.50;99.90
10980;DHT22;5543;51.734;8.744;2023-03-25T05:38:53;8.50;99.90
10980;DHT22;5543;51.734;8.744;2023-03-25T05:41:22;8.40;99.90
10980;DHT22;5543;51.734;8.744;2023-03-25T05:43:59;8.50;99.90
10980;DHT22;5543;51.734;8.744;2023-03-25T05:46:28;8.50;99.90
10980;DHT22;5543;51.734;8.744;2023-03-25T05:48:57;8.50;99.90
10980;DHT22;5543;51.734;8.744;2023-03-25T05:51:27;8.60;99.90
10980;DHT22;5543;51.734;8.744;2023-03-25T05:54:00;8.60;99.90
10980;DHT22;5543;51.734;8.744;2023-03-25T05:56:28;8.50;99.90
10980;DHT22;5543;51.734;8.744;2023-03-25T05:58:56;8.60;99.90
10980;DHT22;5543;51.734;8.744;2023-03-25T06:01:25;8.60;99.90
10980;DHT22;5543;51.734;8.744;2023-03-25T06:04:02;8.60;99.90
10980;DHT22;5543;51.734;8.744;2023-03-25T06:06:31;8.60;99.90
10980;DHT22;5543;51.734;8.744;2023-03-25T06:09:02;8.70;99.90
10980;DHT22;5543;51.734;8.744;2023-03-25T06:11:30;8.70;99.90
10980;DHT22;5543;51.734;8.744;2023-03-25T06:14:05;8.80;99.90
10980;DHT22;5543;51.734;8.744;2023-03-25T06:16:33;8.80;99.90
10980;DHT22;5543;51.734;8.744;2023-03-25T06:19:03;8.80;99.90
10980;DHT22;5543;51.734;8.744;2023-03-25T06:21:32;8.90;99.90
10980;DHT22;5543;51.734;8.744;2023-03-25T06:24:00;9.00;99.90
10980;DHT22;5543;51.734;8.744;2023-03-25T06:26:29;9.00;99.90
10980;DHT22;5543;51.734;8.744;2023-03-25T06:28:58;9.00;99.90
10980;DHT22;5543;51.734;8.744;2023-03-25T06:31:27;9.00;99.90
10980;DHT22;5543;51.734;8.744;2023-03-25T06:34:00;9.00;99.90
10980;DHT22;5543;51.734;8.744;2023-03-25T06:36:29;9.00;99.90
10980;DHT22;5543;51.734;8.744;2023-03-25T06:39:02;9.10;99.90
10980;DHT22;5543;51.734;8.744;2023-03-25T06:41:32;9.10;99.90
10980;DHT22;5543;51.734;8.744;2023-03-25T06:44:01;9.30;99.90
10980;DHT22;5543;51.734;8.744;2023-03-25T06:46:30;9.20;99.90
10980;DHT22;5543;51.734;8.744;2023-03-25T06:48:58;9.10;99.90
10980;DHT22;5543;51.734;8.744;2023-03-25T06:51:27;9.10;99.90
10980;DHT22;5543;51.734;8.744;2023-03-25T06:53:56;9.40;99.90
10980;DHT22;5543;51.734;8.744;2023-03-25T06:56:24;9.10;99.90
10980;DHT22;5543;51.734;8.744;2023-03-25T06:58:52;9.10;99.90
10980;DHT22;5543;51.734;8.744;2023-03-25T07:01:20;9.20;99.90
10980;DHT22;5543;51.734;8.744;2023-03-25T07:03:48;9.30;99.90
10980;DHT22;5543;51.734;8.744;2023-03-25T07:06:18;9.30;99.90
10980;DHT22;5543;51.734;8.744;2023-03-25T07:08:47;9.30;99.90
10980;DHT22;5543;51.734;8.744;2023-03-25T07:11:22;9.20;99.90
10980;DHT22;5543;51.734;8.744;2023-03-25T07:13:51;9.30;99.90
10980;DHT22;5543;51.734;8.744;2023-03-25T07:16:19;9.30;99.90
10980;DHT22;5543;51.734;8.744;2023-03-25T07:18:48;9.30;99.90
10980;DHT22;5543;51.734;8.744;2023-03-25T07:21:17;9.20;99.90
10980;DHT22;5543;51.734;8.744;2023-03-25T07:23:46;9.30;99.90
10980;DHT22;5543;51.734;8.744;2023-03-25T07:26:14;9.40;99.90
10980;DHT22;5543;51.734;8.744;2023-03-25T07:28:43;9.40;99.90
10980;DHT22;5543;51.734;8.744;2023-03-25T07:31:14;9.50;99.90
10980;DHT22;5543;51.734;8.744;2023-03-25T07:33:43;9.50;99.90
10980;DHT22;5543;51.734;8.744;2023-03-25T07:36:12;9.40;99.90
10980;DHT22;5543;51.734;8.744;2023-03-25T07:38:40;9.50;99.90
10980;DHT22;5543;51.734;8.744;2023-03-25T07:41:10;9.50;99.90
10980;DHT22;5543;51.734;8.744;2023-03-25T07:43:38;9.70;99.90
10980;DHT22;5543;51.734;8.744;2023-03-25T07:46:07;9.70;99.90
10980;DHT22;5543;51.734;8.744;2023-03-25T07:48:36;9.80;99.90
10980;DHT22;5543;51.734;8.744;2023-03-25T07:51:04;9.80;99.90
10980;DHT22;5543;51.734;8.744;2023-03-25T07:53:34;9.80;99.90
10980;DHT22;5543;51.734;8.744;2023-03-25T07:56:06;9.80;99.90
10980;DHT22;5543;51.734;8.744;2023-03-25T07:58:34;9.80;99.90
10980;DHT22;5543;51.734;8.744;2023-03-25T08:01:02;9.80;99.90
10980;DHT22;5543;51.734;8.744;2023-03-25T08:03:32;9.70;99.90
10980;DHT22;5543;51.734;8.744;2023-03-25T08:06:01;9.80;99.90
10980;DHT22;5543;51.734;8.744;2023-03-25T08:08:30;9.70;99.90
10980;DHT22;5543;51.734;8.744;2023-03-25T08:10:59;9.70;99.90
10980;DHT22;5543;51.734;8.744;2023-03-25T08:13:27;9.60;99.90
10980;DHT22;5543;51.734;8.744;2023-03-25T08:15:55;9.60;99.90
10980;DHT22;5543;51.734;8.744;2023-03-25T08:18:24;9.70;99.90
10980;DHT22;5543;51.734;8.744;2023-03-25T08:20:54;9.70;99.90
10980;DHT22;5543;51.734;8.744;2023-03-25T08:23:22;9.70;99.90
10980;DHT22;5543;51.734;8.744;2023-03-25T08:25:53;9.80;99.90
10980;DHT22;5543;51.734;8.744;2023-03-25T08:28:21;9.90;99.90
10980;DHT22;5543;51.734;8.744;2023-03-25T08:30:50;9.90;99.90
10980;DHT22;5543;51.734;8.744;2023-03-25T08:33:22;9.80;99.90
10980;DHT22;5543;51.734;8.744;2023-03-25T08:35:56;10.00;99.90
10980;DHT22;5543;51.734;8.744;2023-03-25T08:38:24;9.90;99.90
10980;DHT22;5543;51.734;8.744;2023-03-25T08:41:00;10.10;99.90
10980;DHT22;5543;51.734;8.744;2023-03-25T08:43:29;10.40;99.90
10980;DHT22;5543;51.734;8.744;2023-03-25T08:45:57;10.80;99.90
10980;DHT22;5543;51.734;8.744;2023-03-25T08:48:25;11.30;99.90
10980;DHT22;5543;51.734;8.744;2023-03-25T08:50:54;11.80;99.90
10980;DHT22;5543;51.734;8.744;2023-03-25T08:53:23;12.20;99.90
10980;DHT22;5543;51.734;8.744;2023-03-25T08:55:52;12.30;99.90
10980;DHT22;5543;51.734;8.744;2023-03-25T08:58:21;13.70;99.90
10980;DHT22;5543;51.734;8.744;2023-03-25T09:00:49;16.10;99.90
10980;DHT22;5543;51.734;8.744;2023-03-25T09:03:20;17.40;97.20
10980;DHT22;5543;51.734;8.744;2023-03-25T09:05:48;17.70;96.30
10980;DHT22;5543;51.734;8.744;2023-03-25T09:08:18;16.90;95.70
10980;DHT22;5543;51.734;8.744;2023-03-25T09:10:46;16.10;97.00
10980;DHT22;5543;51.734;8.744;2023-03-25T09:13:14;15.40;97.40
10980;DHT22;5543;51.734;8.744;2023-03-25T09:15:44;14.40;98.20
10980;DHT22;5543;51.734;8.744;2023-03-25T09:18:13;13.30;98.90
10980;DHT22;5543;51.734;8.744;2023-03-25T09:20:41;12.40;99.30
10980;DHT22;5543;51.734;8.744;2023-03-25T09:23:09;11.80;99.90
10980;DHT22;5543;51.734;8.744;2023-03-25T09:25:38;11.70;99.90
10980;DHT22;5543;51.734;8.744;2023-03-25T09:28:07;11.70;99.90
10980;DHT22;5543;51.734;8.744;2023-03-25T09:30:35;11.60;99.90
10980;DHT22;5543;51.734;8.744;2023-03-25T09:33:03;11.50;99.90
10980;DHT22;5543;51.734;8.744;2023-03-25T09:35:32;11.80;99.90
10980;DHT22;5543;51.734;8.744;2023-03-25T09:38:00;12.70;99.90
10980;DHT22;5543;51.734;8.744;2023-03-25T09:40:29;13.20;99.20
10980;DHT22;5543;51.734;8.744;2023-03-25T09:43:06;13.40;99.40
10980;DHT22;5543;51.734;8.744;2023-03-25T09:45:44;13.30;99.90
10980;DHT22;5543;51.734;8.744;2023-03-25T09:48:22;13.30;99.10
10980;DHT22;5543;51.734;8.744;2023-03-25T09:50:52;13.70;98.40
10980;DHT22;5543;51.734;8.744;2023-03-25T09:53:28;13.80;98.40
10980;DHT22;5543;51.734;8.744;2023-03-25T09:55:59;13.90;97.30
10980;DHT22;5543;51.734;8.744;2023-03-25T09:58:35;13.80;97.20
10980;DHT22;5543;51.734;8.744;2023-03-25T10:01:14;13.50;97.40
10980;DHT22;5543;51.734;8.744;2023-03-25T10:03:56;13.30;97.90
10980;DHT22;5543;51.734;8.744;2023-03-25T10:06:27;13.30;97.90
10980;DHT22;5543;51.734;8.744;2023-03-25T10:09:18;13.40;97.60
10980;DHT22;5543;51.734;8.744;2023-03-25T10:11:52;12.80;97.40
10980;DHT22;5543;51.734;8.744;2023-03-25T10:14:28;12.50;98.20
10980;DHT22;5543;51.734;8.744;2023-03-25T10:17:10;12.30;98.20
10980;DHT22;5543;51.734;8.744;2023-03-25T10:19:46;13.30;98.60
10980;DHT22;5543;51.734;8.744;2023-03-25T10:22:24;14.10;97.40
10980;DHT22;5543;51.734;8.744;2023-03-25T10:24:55;14.50;95.70
10980;DHT22;5543;51.734;8.744;2023-03-25T10:27:30;14.50;95.30
10980;DHT22;5543;51.734;8.744;2023-03-25T10:30:06;14.00;95.80
10980;DHT22;5543;51.734;8.744;2023-03-25T10:32:39;13.50;96.70
10980;DHT22;5543;51.734;8.744;2023-03-25T10:35:11;13.20;97.00
10980;DHT22;5543;51.734;8.744;2023-03-25T10:37:42;13.00;96.80
10980;DHT22;5543;51.734;8.744;2023-03-25T10:40:16;12.90;97.50
10980;DHT22;5543;51.734;8.744;2023-03-25T10:42:56;12.90;97.90
10980;DHT22;5543;51.734;8.744;2023-03-25T10:45:27;12.70;97.90
10980;DHT22;5543;51.734;8.744;2023-03-25T10:48:00;12.70;98.90
10980;DHT22;5543;51.734;8.744;2023-03-25T10:50:29;12.50;99.30
10980;DHT22;5543;51.734;8.744;2023-03-25T10:52:57;12.70;98.50
10980;DHT22;5543;51.734;8.744;2023-03-25T10:55:29;12.80;98.10
10980;DHT22;5543;51.734;8.744;2023-03-25T10:57:59;13.00;98.90
10980;DHT22;5543;51.734;8.744;2023-03-25T11:00:28;13.60;99.00
10980;DHT22;5543;51.734;8.744;2023-03-25T11:02:57;14.20;97.70
10980;DHT22;5543;51.734;8.744;2023-03-25T11:05:27;14.40;97.00
10980;DHT22;5543;51.734;8.744;2023-03-25T11:07:57;14.30;97.00
10980;DHT22;5543;51.734;8.744;2023-03-25T11:10:46;14.20;97.00
10980;DHT22;5543;51.734;8.744;2023-03-25T11:13:17;13.40;97.20
10980;DHT22;5543;51.734;8.744;2023-03-25T11:15:51;13.20;98.20
10980;DHT22;5543;51.734;8.744;2023-03-25T11:18:23;13.00;98.90
10980;DHT22;5543;51.734;8.744;2023-03-25T11:20:55;12.60;99.30
10980;DHT22;5543;51.734;8.744;2023-03-25T11:23:26;12.30;99.90
10980;DHT22;5543;51.734;8.744;2023-03-25T11:26:01;12.10;99.90
10980;DHT22;5543;51.734;8.744;2023-03-25T11:28:36;11.80;99.90
10980;DHT22;5543;51.734;8.744;2023-03-25T11:31:13;11.70;99.90
10980;DHT22;5543;51.734;8.744;2023-03-25T11:33:43;11.60;99.90
10980;DHT22;5543;51.734;8.744;2023-03-25T11:36:24;11.60;99.90
10980;DHT22;5543;51.734;8.744;2023-03-25T11:38:58;11.80;99.90
10980;DHT22;5543;51.734;8.744;2023-03-25T11:41:31;12.10;99.90
10980;DHT22;5543;51.734;8.744;2023-03-25T11:44:01;12.20;99.90
10980;DHT22;5543;51.734;8.744;2023-03-25T11:46:31;12.50;99.90
10980;DHT22;5543;51.734;8.744;2023-03-25T11:49:08;12.60;99.50
10980;DHT22;5543;51.734;8.744;2023-03-25T11:51:38;12.40;99.90
10980;DHT22;5543;51.734;8.744;2023-03-25T11:54:08;12.20;99.90
10980;DHT22;5543;51.734;8.744;2023-03-25T11:56:41;12.10;99.90
10980;DHT22;5543;51.734;8.744;2023-03-25T11:59:19;11.90;99.90
10980;DHT22;5543;51.734;8.744;2023-03-25T12:01:51;11.50;99.90
10980;DHT22;5543;51.734;8.744;2023-03-25T12:04:21;11.30;99.90
10980;DHT22;5543;51.734;8.744;2023-03-25T12:06:58;11.00;99.90
10980;DHT22;5543;51.734;8.744;2023-03-25T12:09:28;11.20;99.90
10980;DHT22;5543;51.734;8.744;2023-03-25T12:12:15;11.10;99.90
10980;DHT22;5543;51.734;8.744;2023-03-25T12:14:55;11.60;99.90
10980;DHT22;5543;51.734;8.744;2023-03-25T12:17:42;12.10;99.90
10980;DHT22;5543;51.734;8.744;2023-03-25T12:20:19;12.60;99.90
10980;DHT22;5543;51.734;8.744;2023-03-25T12:22:59;12.50;99.90
10980;DHT22;5543;51.734;8.744;2023-03-25T12:25:38;12.60;99.90
10980;DHT22;5543;51.734;8.744;2023-03-25T12:31:07;13.40;99.90
10980;DHT22;5543;51.734;8.744;2023-03-25T12:33:49;13.30;99.90
10980;DHT22;5543;51.734;8.744;2023-03-25T12:36:32;13.20;99.90
10980;DHT22;5543;51.734;8.744;2023-03-25T12:39:23;13.10;99.90
10980;DHT22;5543;51.734;8.744;2023-03-25T12:42:14;12.80;99.90
10980;DHT22;5543;51.734;8.744;2023-03-25T12:44:59;12.50;99.90
10980;DHT22;5543;51.734;8.744;2023-03-25T12:47:34;12.40;99.90
10980;DHT22;5543;51.734;8.744;2023-03-25T12:53:24;13.40;99.90
10980;DHT22;5543;51.734;8.744;2023-03-25T12:56:04;14.00;99.90
10980;DHT22;5543;51.734;8.744;2023-03-25T12:58:49;14.60;99.90
10980;DHT22;5543;51.734;8.744;2023-03-25T13:01:25;15.20;99.90
10980;DHT22;5543;51.734;8.744;2023-03-25T13:04:11;16.00;99.90
10980;DHT22;5543;51.734;8.744;2023-03-25T13:06:49;16.50;98.60
10980;DHT22;5543;51.734;8.744;2023-03-25T13:09:23;16.60;95.90
10980;DHT22;5543;51.734;8.744;2023-03-25T13:11:54;16.10;96.00
10980;DHT22;5543;51.734;8.744;2023-03-25T13:14:27;15.30;95.90
10980;DHT22;5543;51.734;8.744;2023-03-25T13:17:00;14.50;97.70
10980;DHT22;5543;51.734;8.744;2023-03-25T13:19:32;14.10;97.80
10980;DHT22;5543;51.734;8.744;2023-03-25T13:22:15;13.90;99.30
10980;DHT22;5543;51.734;8.744;2023-03-25T13:24:47;14.40;98.60
10980;DHT22;5543;51.734;8.744;2023-03-25T13:27:18;14.60;98.90
10980;DHT22;5543;51.734;8.744;2023-03-25T13:29:49;14.60;98.90
10980;DHT22;5543;51.734;8.744;2023-03-25T13:32:21;14.60;98.30
10980;DHT22;5543;51.734;8.744;2023-03-25T13:34:52;14.40;98.90
10980;DHT22;5543;51.734;8.744;2023-03-25T13:37:27;14.00;98.60
10980;DHT22;5543;51.734;8.744;2023-03-25T13:40:05;13.70;99.00
10980;DHT22;5543;51.734;8.744;2023-03-25T13:42:44;13.50;99.30
10980;DHT22;5543;51.734;8.744;2023-03-25T13:45:17;13.20;99.50
10980;DHT22;5543;51.734;8.744;2023-03-25T13:47:50;12.90;99.90
10980;DHT22;5543;51.734;8.744;2023-03-25T13:50:24;12.50;99.90
10980;DHT22;5543;51.734;8.744;2023-03-25T13:52:59;12.30;99.90
10980;DHT22;5543;51.734;8.744;2023-03-25T13:55:31;12.10;99.90
10980;DHT22;5543;51.734;8.744;2023-03-25T14:01:31;11.80;99.90
10980;DHT22;5543;51.734;8.744;2023-03-25T14:08:15;12.30;99.90
10980;DHT22;5543;51.734;8.744;2023-03-25T14:10:52;13.50;99.90
10980;DHT22;5543;51.734;8.744;2023-03-25T14:13:23;14.50;99.00
10980;DHT22;5543;51.734;8.744;2023-03-25T14:15:57;15.00;97.90
10980;DHT22;5543;51.734;8.744;2023-03-25T14:18:27;15.10;97.60
10980;DHT22;5543;51.734;8.744;2023-03-25T14:20:59;15.00;97.20
10980;DHT22;5543;51.734;8.744;2023-03-25T14:23:40;14.70;98.10
10980;DHT22;5543;51.734;8.744;2023-03-25T14:26:10;14.80;97.20
10980;DHT22;5543;51.734;8.744;2023-03-25T14:28:41;14.80;97.00
10980;DHT22;5543;51.734;8.744;2023-03-25T14:31:23;14.70;97.30
10980;DHT22;5543;51.734;8.744;2023-03-25T14:34:22;14.80;96.50
10980;DHT22;5543;51.734;8.744;2023-03-25T14:37:27;15.10;96.60
10980;DHT22;5543;51.734;8.744;2023-03-25T14:43:32;14.50;95.90
10980;DHT22;5543;51.734;8.744;2023-03-25T14:46:05;14.30;96.70
10980;DHT22;5543;51.734;8.744;2023-03-25T14:48:41;13.90;97.50
10980;DHT22;5543;51.734;8.744;2023-03-25T14:51:41;13.70;96.40
10980;DHT22;5543;51.734;8.744;2023-03-25T14:54:18;13.40;97.80
10980;DHT22;5543;51.734;8.744;2023-03-25T14:56:53;12.80;99.20
10980;DHT22;5543;51.734;8.744;2023-03-25T14:59:28;12.80;99.90
10980;DHT22;5543;51.734;8.744;2023-03-25T15:02:02;12.80;99.90
10980;DHT22;5543;51.734;8.744;2023-03-25T15:04:33;12.80;99.90
10980;DHT22;5543;51.734;8.744;2023-03-25T15:07:08;12.40;99.90
10980;DHT22;5543;51.734;8.744;2023-03-25T15:09:45;12.40;99.90
10980;DHT22;5543;51.734;8.744;2023-03-25T15:12:22;11.90;99.90
10980;DHT22;5543;51.734;8.744;2023-03-25T15:14:54;11.80;99.90
10980;DHT22;5543;51.734;8.744;2023-03-25T15:17:42;11.70;99.90
10980;DHT22;5543;51.734;8.744;2023-03-25T15:26:22;12.00;99.40
10980;DHT22;5543;51.734;8.744;2023-03-25T15:29:29;12.20;98.80
10980;DHT22;5543;51.734;8.744;2023-03-25T15:32:12;12.40;99.00
10980;DHT22;5543;51.734;8.744;2023-03-25T15:34:59;12.80;98.00
10980;DHT22;5543;51.734;8.744;2023-03-25T15:41:28;12.60;97.90
10980;DHT22;5543;51.734;8.744;2023-03-25T15:44:21;12.30;98.80
10980;DHT22;5543;51.734;8.744;2023-03-25T15:47:23;12.10;99.00
10980;DHT22;5543;51.734;8.744;2023-03-25T15:50:19;11.90;99.20
10980;DHT22;5543;51.734;8.744;2023-03-25T15:53:19;11.70;99.60
10980;DHT22;5543;51.734;8.744;2023-03-25T15:56:09;11.60;99.80
10980;DHT22;5543;51.734;8.744;2023-03-25T15:58:42;11.70;99.90
10980;DHT22;5543;51.734;8.744;2023-03-25T16:01:20;11.80;99.80
10980;DHT22;5543;51.734;8.744;2023-03-25T16:03:57;11.70;99.90
10980;DHT22;5543;51.734;8.744;2023-03-25T16:06:27;11.70;99.90
10980;DHT22;5543;51.734;8.744;2023-03-25T16:08:56;11.80;99.50
10980;DHT22;5543;51.734;8.744;2023-03-25T16:11:26;11.80;99.80
10980;DHT22;5543;51.734;8.744;2023-03-25T16:14:06;11.80;99.80
10980;DHT22;5543;51.734;8.744;2023-03-25T16:16:39;11.60;99.90
10980;DHT22;5543;51.734;8.744;2023-03-25T16:19:14;11.60;99.90
10980;DHT22;5543;51.734;8.744;2023-03-25T16:21:47;11.50;99.90
10980;DHT22;5543;51.734;8.744;2023-03-25T16:24:16;11.40;99.90
10980;DHT22;5543;51.734;8.744;2023-03-25T16:26:47;11.40;99.90
10980;DHT22;5543;51.734;8.744;2023-03-25T16:29:17;11.20;99.90
10980;DHT22;5543;51.734;8.744;2023-03-25T16:31:54;11.20;99.90
10980;DHT22;5543;51.734;8.744;2023-03-25T16:34:25;11.30;99.90
10980;DHT22;5543;51.734;8.744;2023-03-25T16:36:54;11.40;99.90
10980;DHT22;5543;51.734;8.744;2023-03-25T16:39:23;11.40;99.90
10980;DHT22;5543;51.734;8.744;2023-03-25T16:41:59;11.50;99.90
10980;DHT22;5543;51.734;8.744;2023-03-25T16:44:28;11.50;99.90
10980;DHT22;5543;51.734;8.744;2023-03-25T16:46:56;11.40;99.90
10980;DHT22;5543;51.734;8.744;2023-03-25T16:49:29;11.10;99.90
10980;DHT22;5543;51.734;8.744;2023-03-25T16:52:00;10.90;99.90
10980;DHT22;5543;51.734;8.744;2023-03-25T16:54:34;10.80;99.90
10980;DHT22;5543;51.734;8.744;2023-03-25T16:57:06;10.70;99.90
10980;DHT22;5543;51.734;8.744;2023-03-25T16:59:35;10.60;99.90
10980;DHT22;5543;51.734;8.744;2023-03-25T17:02:22;10.60;99.90
10980;DHT22;5543;51.734;8.744;2023-03-25T17:04:52;10.40;99.90
10980;DHT22;5543;51.734;8.744;2023-03-25T17:07:26;10.40;99.90